Time;durP1;ratioP1;P1;durP2;ratioP2;P2;SDS_P1;SDS_P2;PMS_P1;PMS_P2;Temp;Humidity;BMP_temperature;BMP_pressure;BME280_temperature;BME280_humidity;BME280_pressure;Samples;Min_cycle;Max_cycle;Signal;HPM_P1;HPM_P2
2023/08/25 00:01:17;;;;;;;108.60;57.60;;;18.00;99.90;;;;;;5066052;28;19957;-85
2023/08/25 00:03:43;;;;;;;98.53;55.25;;;17.90;99.90;;;;;;5067799;28;20020;-86
2023/08/25 00:06:09;;;;;;;102.38;54.50;;;17.90;99.90;;;;;;5070020;28;20016;-85
2023/08/25 00:08:36;;;;;;;96.85;52.42;;;17.90;99.90;;;;;;5064132;28;20024;-85
2023/08/25 00:11:02;;;;;;;87.47;50.03;;;17.90;99.90;;;;;;5065297;28;20483;-85
2023/08/25 00:13:27;;;;;;;95.72;50.67;;;17.90;99.90;;;;;;5064326;28;20039;-86
2023/08/25 00:15:53;;;;;;;93.05;49.95;;;17.90;99.90;;;;;;5083666;28;20028;-85
2023/08/25 00:18:19;;;;;;;92.10;50.30;;;17.90;99.90;;;;;;5064601;28;20086;-86
2023/08/25 00:20:44;;;;;;;82.57;47.58;;;17.90;99.90;;;;;;5063134;28;20024;-85
2023/08/25 00:23:10;;;;;;;87.15;47.72;;;17.90;99.90;;;;;;5073713;28;20028;-85
2023/08/25 00:25:36;;;;;;;98.25;49.60;;;17.80;99.90;;;;;;5063290;28;20024;-86
2023/08/25 00:28:01;;;;;;;81.28;45.53;;;17.80;99.90;;;;;;5065955;28;20046;-86
2023/08/25 00:30:27;;;;;;;72.15;41.38;;;17.70;99.90;;;;;;5079474;28;20024;-85
2023/08/25 00:32:54;;;;;;;66.93;41.38;;;17.70;99.90;;;;;;5067272;28;20043;-86
2023/08/25 00:35:20;;;;;;;69.68;40.13;;;17.70;99.90;;;;;;5064839;28;20032;-85
2023/08/25 00:37:46;;;;;;;60.55;38.00;;;17.70;99.90;;;;;;5069502;28;20061;-86
2023/08/25 00:40:12;;;;;;;71.28;40.60;;;17.70;99.90;;;;;;5065072;28;20154;-86
2023/08/25 00:42:37;;;;;;;78.30;42.17;;;17.70;99.90;;;;;;5079241;28;20020;-86
2023/08/25 00:45:04;;;;;;;74.80;40.95;;;17.70;99.90;;;;;;5068442;28;20020;-85
2023/08/25 00:47:30;;;;;;;84.50;40.33;;;17.70;99.90;;;;;;5090188;28;20021;-86
2023/08/25 00:49:56;;;;;;;70.38;40.22;;;17.70;99.90;;;;;;5067502;28;20637;-86
2023/08/25 00:52:22;;;;;;;66.65;40.22;;;17.80;99.90;;;;;;5067940;28;20070;-85
2023/08/25 00:54:51;;;;;;;80.43;42.75;;;17.80;99.90;;;;;;5076876;28;20035;-86
2023/08/25 00:57:17;;;;;;;79.28;43.42;;;17.90;99.90;;;;;;5104658;28;20024;-86
2023/08/25 00:59:45;;;;;;;67.97;43.05;;;17.90;99.90;;;;;;5076116;28;20024;-85
2023/08/25 01:02:12;;;;;;;69.95;43.47;;;17.90;99.90;;;;;;5082741;28;20022;-86
2023/08/25 01:04:38;;;;;;;77.32;44.70;;;17.80;99.90;;;;;;5062685;28;20032;-86
2023/08/25 01:07:04;;;;;;;85.85;44.95;;;17.80;99.90;;;;;;5065077;28;20368;-86
2023/08/25 01:09:32;;;;;;;78.72;45.83;;;17.80;99.90;;;;;;5062507;28;20046;-85
2023/08/25 01:12:11;;;;;;;83.90;45.97;;;17.80;99.90;;;;;;5066708;28;20028;-85
2023/08/25 01:15:00;;;;;;;72.90;44.38;;;17.80;99.90;;;;;;5064136;28;20085;-85
2023/08/25 01:17:45;;;;;;;68.05;42.95;;;17.80;99.90;;;;;;5062188;28;20119;-86
2023/08/25 01:20:15;;;;;;;72.80;44.20;;;17.80;99.90;;;;;;5072423;28;20028;-85
2023/08/25 01:22:59;;;;;;;84.68;45.92;;;17.90;99.90;;;;;;5082366;28;20130;-85
2023/08/25 01:25:29;;;;;;;64.05;41.28;;;17.90;99.90;;;;;;5064657;28;20074;-85
2023/08/25 01:27:59;;;;;;;82.50;48.63;;;17.90;99.90;;;;;;5066142;28;20071;-86
2023/08/25 01:30:27;;;;;;;68.60;42.30;;;17.90;99.90;;;;;;5062668;28;20576;-86
2023/08/25 01:32:53;;;;;;;68.22;43.20;;;17.90;99.90;;;;;;5084751;28;20031;-86
2023/08/25 01:35:30;;;;;;;71.40;42.28;;;17.90;99.90;;;;;;5080648;28;20077;-86
2023/08/25 01:38:06;;;;;;;68.78;41.83;;;17.90;99.90;;;;;;5070534;28;20043;-86
2023/08/25 01:40:43;;;;;;;65.65;42.05;;;17.90;99.90;;;;;;5066234;28;20063;-85
2023/08/25 01:43:11;;;;;;;68.30;43.85;;;17.90;99.90;;;;;;5079831;28;20051;-86
2023/08/25 01:45:36;;;;;;;62.90;42.10;;;17.90;99.90;;;;;;5085001;28;20023;-86
2023/08/25 01:48:06;;;;;;;62.65;41.75;;;18.00;99.90;;;;;;5064401;28;20055;-85
2023/08/25 01:50:34;;;;;;;60.03;40.78;;;17.90;99.90;;;;;;5079470;28;20061;-86
2023/08/25 01:53:01;;;;;;;58.70;41.15;;;17.90;99.90;;;;;;5082788;28;20028;-86
2023/08/25 01:55:29;;;;;;;61.97;42.28;;;17.80;99.90;;;;;;5077519;28;20036;-85
2023/08/25 01:57:56;;;;;;;65.20;44.22;;;17.80;99.90;;;;;;5070927;28;20387;-85
2023/08/25 02:00:22;;;;;;;72.82;46.58;;;17.90;99.90;;;;;;5066670;28;20023;-86
2023/08/25 02:02:48;;;;;;;68.78;45.33;;;17.90;99.90;;;;;;5074914;28;20032;-85
2023/08/25 02:05:14;;;;;;;70.05;48.70;;;17.80;99.90;;;;;;5070433;28;20028;-85
2023/08/25 02:07:39;;;;;;;63.80;43.35;;;17.80;99.90;;;;;;5061322;28;20078;-86
2023/08/25 02:10:05;;;;;;;62.58;40.28;;;17.80;99.90;;;;;;5069580;28;20520;-85
2023/08/25 02:12:31;;;;;;;55.40;38.28;;;17.80;99.90;;;;;;5062561;28;20024;-86
2023/08/25 02:14:57;;;;;;;55.22;35.22;;;17.90;99.90;;;;;;5067750;28;20032;-85
2023/08/25 02:17:22;;;;;;;55.03;36.28;;;17.80;99.90;;;;;;5063316;28;20081;-86
2023/08/25 02:19:48;;;;;;;51.75;36.60;;;17.80;99.90;;;;;;5066286;28;20028;-86
2023/08/25 02:22:14;;;;;;;51.67;35.25;;;17.80;99.90;;;;;;5079988;28;20047;-86
2023/08/25 02:24:39;;;;;;;49.95;34.60;;;17.80;99.90;;;;;;5069655;28;20069;-86
2023/08/25 02:27:05;;;;;;;50.80;34.42;;;17.80;99.90;;;;;;5081568;28;20078;-86
2023/08/25 02:29:31;;;;;;;52.15;33.65;;;17.80;99.90;;;;;;5063117;28;20035;-85
2023/08/25 02:31:56;;;;;;;52.63;33.60;;;17.80;99.90;;;;;;5065503;28;20028;-86
2023/08/25 02:34:22;;;;;;;52.10;34.70;;;17.70;99.90;;;;;;5065199;28;20024;-86
2023/08/25 02:36:48;;;;;;;49.47;32.60;;;17.70;99.90;;;;;;5058526;28;20035;-85
2023/08/25 02:39:15;;;;;;;49.95;32.70;;;17.70;99.90;;;;;;5066494;28;20019;-85
2023/08/25 02:41:42;;;;;;;52.63;32.78;;;17.70;99.90;;;;;;5060791;28;20028;-85
2023/08/25 02:44:09;;;;;;;42.28;29.92;;;17.70;99.90;;;;;;5067902;28;20024;-85
2023/08/25 02:46:34;;;;;;;47.03;32.10;;;17.60;99.90;;;;;;5079709;28;20142;-85
2023/08/25 02:49:03;;;;;;;44.85;30.63;;;17.70;99.90;;;;;;5058342;28;20546;-86
2023/08/25 02:51:29;;;;;;;46.45;31.35;;;17.70;99.90;;;;;;5063338;28;20402;-85
2023/08/25 02:53:54;;;;;;;43.25;29.83;;;17.70;99.90;;;;;;5068949;28;20123;-85
2023/08/25 02:56:20;;;;;;;45.03;30.05;;;17.70;99.90;;;;;;5082057;28;20032;-86
2023/08/25 02:58:45;;;;;;;43.80;29.70;;;17.70;99.90;;;;;;5063963;28;20043;-85
2023/08/25 03:01:12;;;;;;;40.20;28.85;;;17.70;99.90;;;;;;5067261;28;20024;-85
2023/08/25 03:03:38;;;;;;;40.80;30.33;;;17.80;99.90;;;;;;5067100;28;20035;-85
2023/08/25 03:06:05;;;;;;;42.78;30.20;;;17.80;99.90;;;;;;5069709;28;20028;-85
2023/08/25 03:08:31;;;;;;;45.85;30.23;;;17.70;99.90;;;;;;5070065;28;20474;-85
2023/08/25 03:11:00;;;;;;;44.47;30.63;;;17.70;99.90;;;;;;5061451;28;20031;-85
2023/08/25 03:13:27;;;;;;;45.80;29.67;;;17.70;99.90;;;;;;5070384;28;20031;-85
2023/08/25 03:15:54;;;;;;;42.83;29.60;;;17.70;99.90;;;;;;5063024;28;20070;-85
2023/08/25 03:18:20;;;;;;;43.78;32.03;;;17.60;99.90;;;;;;5071813;28;20119;-86
2023/08/25 03:20:52;;;;;;;43.50;30.95;;;17.60;99.90;;;;;;5064721;28;20115;-85
2023/08/25 03:23:20;;;;;;;45.20;31.52;;;17.60;99.90;;;;;;5073175;28;20023;-85
2023/08/25 03:25:45;;;;;;;41.55;29.38;;;17.50;99.90;;;;;;5065454;28;20107;-85
2023/08/25 03:28:12;;;;;;;44.08;27.98;;;17.40;99.90;;;;;;5069091;28;20016;-85
2023/08/25 03:30:37;;;;;;;44.55;32.33;;;17.30;99.90;;;;;;5064870;28;20042;-85
2023/08/25 03:33:06;;;;;;;40.45;29.83;;;17.30;99.90;;;;;;5063527;28;20052;-85
2023/08/25 03:35:34;;;;;;;46.58;31.02;;;17.40;99.90;;;;;;5083985;28;20063;-85
2023/08/25 03:38:00;;;;;;;51.95;31.65;;;17.30;99.90;;;;;;5056418;28;20062;-85
2023/08/25 03:40:25;;;;;;;46.70;33.05;;;17.40;99.90;;;;;;5069436;28;20051;-85
2023/08/25 03:42:51;;;;;;;42.33;30.50;;;17.40;99.90;;;;;;5067250;28;20479;-85
2023/08/25 03:45:17;;;;;;;48.22;32.97;;;17.40;99.90;;;;;;5062366;28;20024;-85
2023/08/25 03:47:42;;;;;;;44.95;30.13;;;17.30;99.90;;;;;;5069543;28;20028;-84
2023/08/25 03:50:08;;;;;;;48.50;31.88;;;17.20;99.90;;;;;;5059002;28;20139;-85
2023/08/25 03:52:35;;;;;;;51.58;33.85;;;17.20;99.90;;;;;;5080448;28;20032;-85
2023/08/25 03:55:01;;;;;;;51.60;33.10;;;17.20;99.90;;;;;;5081207;28;20352;-85
2023/08/25 03:57:26;;;;;;;52.35;31.63;;;17.10;99.90;;;;;;5066433;28;20032;-85
2023/08/25 03:59:52;;;;;;;48.85;32.50;;;17.10;99.90;;;;;;5100182;28;20110;-85
2023/08/25 04:02:17;;;;;;;55.63;31.38;;;17.10;99.90;;;;;;5084639;28;20495;-85
2023/08/25 04:04:45;;;;;;;48.65;33.28;;;17.10;99.90;;;;;;5065081;28;20024;-85
2023/08/25 04:07:13;;;;;;;54.05;34.00;;;17.00;99.90;;;;;;5063422;28;20038;-85
2023/08/25 04:09:39;;;;;;;56.42;36.13;;;17.00;99.90;;;;;;5067787;28;20028;-85
2023/08/25 04:12:05;;;;;;;58.78;38.20;;;17.00;99.90;;;;;;5064176;28;20036;-85
2023/08/25 04:14:31;;;;;;;63.78;39.67;;;17.00;99.90;;;;;;5069083;28;20026;-85
2023/08/25 04:16:57;;;;;;;65.13;39.45;;;17.10;99.90;;;;;;5066067;28;20031;-85
2023/08/25 04:19:25;;;;;;;66.30;40.95;;;17.20;99.90;;;;;;5062456;27;20127;-85
2023/08/25 04:21:52;;;;;;;75.10;43.75;;;17.20;99.90;;;;;;5083063;28;20110;-85
2023/08/25 04:24:19;;;;;;;73.25;43.90;;;17.20;99.90;;;;;;5061139;28;20035;-85
2023/08/25 04:26:45;;;;;;;69.80;43.75;;;17.20;99.90;;;;;;5086069;28;20023;-85
2023/08/25 04:29:11;;;;;;;65.28;42.40;;;17.20;99.90;;;;;;5062320;28;20082;-85
2023/08/25 04:31:38;;;;;;;63.55;41.55;;;17.20;99.90;;;;;;5075909;28;20871;-88
2023/08/25 04:34:05;;;;;;;64.65;37.97;;;17.30;99.90;;;;;;5075479;28;20028;-87
2023/08/25 04:36:36;;;;;;;62.70;36.08;;;17.30;99.90;;;;;;5065172;28;20032;-87
2023/08/25 04:39:02;;;;;;;54.35;35.90;;;17.30;99.90;;;;;;5065875;28;20486;-87
2023/08/25 04:41:28;;;;;;;55.38;32.95;;;17.30;99.90;;;;;;5066745;28;20047;-87
2023/08/25 04:43:54;;;;;;;54.50;32.75;;;17.30;99.90;;;;;;5067022;28;20027;-87
2023/08/25 04:46:20;;;;;;;52.17;29.90;;;17.30;99.90;;;;;;5069164;28;20345;-86
2023/08/25 04:52:34;;;;;;;36.05;25.83;;;17.40;99.90;;;;;;5105327;28;20118;-87
2023/08/25 04:55:02;;;;;;;32.38;24.75;;;17.50;99.90;;;;;;5062125;28;20812;-87
2023/08/25 04:57:28;;;;;;;35.83;24.75;;;17.60;99.90;;;;;;5066308;28;20031;-87
2023/08/25 04:59:54;;;;;;;32.75;22.15;;;17.60;99.90;;;;;;5065763;28;20034;-87
2023/08/25 05:02:19;;;;;;;32.10;19.00;;;17.60;99.90;;;;;;5069126;28;20016;-87
2023/08/25 05:04:45;;;;;;;23.65;18.33;;;17.70;99.90;;;;;;5082487;28;20008;-87
2023/08/25 05:07:11;;;;;;;33.15;16.02;;;17.70;99.90;;;;;;5063996;28;20004;-88
2023/08/25 05:09:37;;;;;;;22.98;16.10;;;17.80;99.90;;;;;;5067140;28;20115;-86
2023/08/25 05:12:03;;;;;;;22.23;16.83;;;17.90;99.90;;;;;;5063836;28;20061;-87
2023/08/25 05:14:32;;;;;;;17.77;13.75;;;18.10;99.90;;;;;;5059909;28;20055;-87
2023/08/25 05:16:58;;;;;;;18.40;12.90;;;18.30;99.90;;;;;;5067372;28;20053;-87
2023/08/25 05:19:27;;;;;;;16.42;12.45;;;18.40;99.90;;;;;;5061078;28;20040;-87
2023/08/25 05:21:53;;;;;;;13.32;9.20;;;18.60;99.90;;;;;;5067529;28;20023;-87
2023/08/25 05:24:22;;;;;;;13.75;8.32;;;18.50;99.90;;;;;;5064869;28;20162;-88
2023/08/25 05:26:54;;;;;;;12.50;8.40;;;18.70;99.90;;;;;;5079229;28;20114;-86
2023/08/25 05:29:30;;;;;;;10.80;7.30;;;18.90;99.90;;;;;;5066743;28;20506;-87
2023/08/25 05:32:09;;;;;;;11.82;7.35;;;19.10;99.90;;;;;;5061999;28;20071;-86
2023/08/25 05:34:57;;;;;;;11.85;7.22;;;19.20;99.90;;;;;;5084091;28;20118;-86
2023/08/25 05:37:23;;;;;;;8.93;7.13;;;19.70;99.90;;;;;;5065399;28;20833;-87
2023/08/25 05:39:49;;;;;;;12.95;6.88;;;19.70;99.90;;;;;;5062955;28;20063;-87
2023/08/25 05:42:15;;;;;;;7.90;5.95;;;19.70;99.90;;;;;;5083196;28;20027;-87
2023/08/25 05:44:42;;;;;;;8.48;6.70;;;19.70;99.90;;;;;;5065738;28;20179;-86
2023/08/25 05:47:08;;;;;;;9.40;6.47;;;19.50;99.90;;;;;;5064916;28;20051;-87
2023/08/25 05:49:34;;;;;;;7.57;5.38;;;19.40;99.90;;;;;;5062969;28;20024;-87
2023/08/25 05:51:59;;;;;;;15.85;5.80;;;19.30;99.90;;;;;;5084113;28;20032;-87
2023/08/25 05:54:25;;;;;;;16.95;6.45;;;19.20;99.90;;;;;;5080127;28;20035;-87
2023/08/25 05:56:55;;;;;;;8.98;5.90;;;18.80;99.90;;;;;;5069347;28;20020;-87
2023/08/25 05:59:21;;;;;;;14.82;7.43;;;18.50;99.90;;;;;;5080997;28;20752;-86
2023/08/25 06:01:47;;;;;;;37.20;11.50;;;18.30;99.90;;;;;;5072428;28;20016;-88
2023/08/25 06:04:13;;;;;;;21.42;10.13;;;18.20;99.90;;;;;;5071090;28;20464;-88
2023/08/25 06:06:39;;;;;;;23.10;9.73;;;18.00;99.90;;;;;;5079294;28;20601;-90
2023/08/25 06:09:05;;;;;;;10.70;7.47;;;17.70;99.90;;;;;;5075426;28;20028;-88
2023/08/25 06:11:31;;;;;;;15.18;9.02;;;17.50;99.90;;;;;;5076310;28;20032;-88
2023/08/25 06:13:56;;;;;;;17.52;9.00;;;17.40;99.90;;;;;;5062581;28;20020;-88
2023/08/25 06:16:23;;;;;;;14.23;9.80;;;17.40;99.90;;;;;;5080978;28;20077;-88
2023/08/25 06:18:48;;;;;;;15.98;10.35;;;17.40;99.90;;;;;;5065771;28;20570;-87
2023/08/25 06:21:14;;;;;;;16.52;9.43;;;17.40;99.90;;;;;;5075079;28;20109;-88
2023/08/25 06:23:40;;;;;;;14.05;8.52;;;17.40;99.90;;;;;;5059691;28;20032;-88
2023/08/25 06:26:06;;;;;;;14.35;8.30;;;17.40;99.90;;;;;;5066521;28;20062;-88
2023/08/25 06:28:33;;;;;;;28.35;9.75;;;17.40;99.90;;;;;;5080597;28;20123;-87
2023/08/25 06:30:59;;;;;;;13.85;7.53;;;17.50;99.90;;;;;;5064753;28;20120;-89
2023/08/25 06:33:29;;;;;;;11.77;8.88;;;17.50;99.90;;;;;;5082872;28;20024;-87
2023/08/25 06:35:56;;;;;;;15.65;8.70;;;17.50;99.90;;;;;;5068252;28;20027;-87
2023/08/25 06:38:23;;;;;;;10.63;7.68;;;17.50;99.90;;;;;;5061169;28;20024;-89
2023/08/25 06:40:50;;;;;;;10.63;7.95;;;17.40;99.90;;;;;;5063353;28;20130;-89
2023/08/25 06:43:16;;;;;;;16.42;8.63;;;17.40;99.90;;;;;;5081943;28;20035;-89
2023/08/25 06:45:42;;;;;;;16.15;8.85;;;17.30;99.90;;;;;;5078298;28;20126;-88
2023/08/25 06:48:08;;;;;;;13.07;8.73;;;17.30;99.90;;;;;;5096065;28;20043;-86
2023/08/25 06:50:34;;;;;;;13.73;8.60;;;17.30;99.90;;;;;;5061140;28;20031;-86
2023/08/25 06:53:00;;;;;;;14.95;8.10;;;17.30;99.90;;;;;;5081472;28;20028;-86
2023/08/25 06:55:25;;;;;;;17.48;8.77;;;17.20;99.90;;;;;;5098329;28;20024;-86
2023/08/25 06:57:51;;;;;;;13.95;9.25;;;17.20;99.90;;;;;;5066536;28;20059;-86
2023/08/25 07:00:21;;;;;;;14.60;7.93;;;17.10;99.90;;;;;;5064464;28;20721;-85
2023/08/25 07:02:46;;;;;;;12.27;7.90;;;17.10;99.90;;;;;;5080703;28;20388;-86
2023/08/25 07:05:13;;;;;;;21.33;8.85;;;17.00;99.90;;;;;;5064364;28;20046;-86
2023/08/25 07:07:39;;;;;;;12.32;8.70;;;17.00;99.90;;;;;;5081089;28;20032;-86
2023/08/25 07:10:05;;;;;;;17.63;8.25;;;17.00;99.90;;;;;;5062393;28;20019;-87
2023/08/25 07:12:31;;;;;;;14.57;10.02;;;16.90;99.90;;;;;;5066249;28;20051;-87
2023/08/25 07:14:57;;;;;;;15.55;10.68;;;17.00;99.90;;;;;;5078502;28;20475;-87
2023/08/25 07:17:23;;;;;;;20.77;12.60;;;17.00;99.90;;;;;;5075065;28;20122;-87
2023/08/25 07:19:49;;;;;;;20.52;12.45;;;17.00;99.90;;;;;;5084945;28;20383;-86
2023/08/25 07:22:15;;;;;;;19.20;11.93;;;17.00;99.90;;;;;;5084137;28;20501;-88
2023/08/25 07:24:40;;;;;;;19.25;13.10;;;17.00;99.90;;;;;;5077568;28;20028;-86
2023/08/25 07:27:06;;;;;;;23.25;15.93;;;17.10;99.90;;;;;;5068610;28;20536;-86
2023/08/25 07:29:35;;;;;;;25.33;16.23;;;17.10;99.90;;;;;;5065744;28;20133;-86
2023/08/25 07:32:02;;;;;;;21.20;14.80;;;17.10;99.90;;;;;;5066696;27;20797;-85
2023/08/25 07:34:28;;;;;;;21.42;13.15;;;17.10;99.90;;;;;;5059353;28;20053;-85
2023/08/25 07:36:53;;;;;;;19.27;12.18;;;17.20;99.90;;;;;;5081256;28;20055;-85
2023/08/25 07:39:19;;;;;;;17.92;10.70;;;17.20;99.90;;;;;;5079970;28;20036;-85
2023/08/25 07:41:45;;;;;;;15.65;11.27;;;17.10;99.90;;;;;;5076966;28;20028;-85
2023/08/25 07:44:11;;;;;;;19.52;11.43;;;17.10;99.90;;;;;;5059687;28;20153;-85
2023/08/25 07:46:39;;;;;;;14.73;9.95;;;17.10;99.90;;;;;;5080809;28;20486;-85
2023/08/25 07:49:08;;;;;;;16.50;10.10;;;17.20;99.90;;;;;;5079819;28;20544;-86
2023/08/25 07:51:36;;;;;;;14.30;9.85;;;17.20;99.90;;;;;;5060384;28;20028;-87
2023/08/25 07:54:02;;;;;;;16.90;8.45;;;17.20;99.90;;;;;;5049101;28;20531;-85
2023/08/25 07:56:28;;;;;;;8.82;6.72;;;17.20;99.90;;;;;;5060125;28;20016;-87
2023/08/25 07:58:53;;;;;;;10.43;6.10;;;17.20;99.90;;;;;;5073374;28;20085;-86
2023/08/25 08:01:19;;;;;;;12.45;6.78;;;17.20;99.90;;;;;;5084419;28;20032;-87
2023/08/25 08:03:45;;;;;;;10.60;5.35;;;17.30;99.90;;;;;;5083174;28;20039;-87
2023/08/25 08:06:11;;;;;;;10.23;6.90;;;17.40;99.90;;;;;;5064864;28;20586;-87
2023/08/25 08:08:37;;;;;;;8.95;7.03;;;17.50;99.90;;;;;;5075087;28;20008;-87
2023/08/25 08:11:03;;;;;;;13.45;8.07;;;17.70;99.90;;;;;;5060157;28;20016;-87
2023/08/25 08:13:29;;;;;;;10.77;5.78;;;17.80;99.90;;;;;;5066959;28;20024;-86
2023/08/25 08:15:55;;;;;;;8.02;5.78;;;17.90;99.90;;;;;;5066791;28;20483;-86
2023/08/25 08:18:21;;;;;;;12.15;6.90;;;18.00;99.90;;;;;;5076418;28;20025;-86
2023/08/25 08:20:48;;;;;;;10.50;7.32;;;18.20;99.90;;;;;;5102798;28;20024;-86
2023/08/25 08:23:15;;;;;;;10.75;7.07;;;18.40;99.90;;;;;;5062578;28;20074;-86
2023/08/25 08:25:41;;;;;;;11.50;8.43;;;18.60;99.90;;;;;;5059728;28;20078;-86
2023/08/25 08:28:08;;;;;;;11.88;8.35;;;18.60;99.90;;;;;;5065434;28;20050;-87
2023/08/25 08:30:35;;;;;;;12.27;8.60;;;18.80;99.90;;;;;;5083323;28;20028;-87
2023/08/25 08:33:01;;;;;;;11.63;8.38;;;18.80;99.90;;;;;;5083765;28;20032;-87
2023/08/25 08:35:26;;;;;;;11.18;8.23;;;18.90;99.90;;;;;;5077230;28;20474;-86
2023/08/25 08:37:52;;;;;;;14.98;8.90;;;18.70;99.90;;;;;;5068555;28;20174;-86
2023/08/25 08:40:20;;;;;;;13.23;8.13;;;18.70;99.90;;;;;;5062313;28;20054;-86
2023/08/25 08:42:47;;;;;;;14.32;7.93;;;18.80;99.90;;;;;;5087137;28;20088;-86
2023/08/25 08:45:15;;;;;;;12.27;7.55;;;18.90;99.90;;;;;;5064011;28;20035;-87
2023/08/25 08:47:41;;;;;;;10.43;6.15;;;18.90;99.90;;;;;;5065877;28;20032;-87
2023/08/25 08:50:08;;;;;;;12.52;5.53;;;19.00;99.90;;;;;;5063338;28;20388;-87
2023/08/25 08:52:34;;;;;;;8.05;6.03;;;19.00;99.90;;;;;;5085604;28;20012;-87
2023/08/25 08:55:00;;;;;;;12.57;6.70;;;19.00;99.90;;;;;;5064649;28;20032;-87
2023/08/25 08:57:27;;;;;;;13.73;6.07;;;18.90;99.90;;;;;;5081047;28;20070;-87
2023/08/25 08:59:53;;;;;;;10.80;5.07;;;18.80;99.90;;;;;;5082660;28;20502;-87
2023/08/25 09:02:22;;;;;;;9.15;5.22;;;18.90;99.90;;;;;;5057781;28;20032;-86
2023/08/25 09:04:53;;;;;;;9.93;5.28;;;18.90;99.90;;;;;;5066065;28;20458;-87
2023/08/25 09:07:19;;;;;;;9.40;5.25;;;19.00;99.90;;;;;;5098823;28;20051;-87
2023/08/25 09:09:46;;;;;;;9.65;4.97;;;19.00;99.90;;;;;;5084391;28;20032;-87
2023/08/25 09:12:15;;;;;;;8.73;5.07;;;19.10;99.90;;;;;;5065493;28;20032;-87
2023/08/25 09:15:23;;;;;;;10.98;5.22;;;19.10;99.90;;;;;;5072477;28;20419;-88
2023/08/25 09:18:00;;;;;;;7.70;5.15;;;19.20;99.90;;;;;;5058431;28;20028;-87
2023/08/25 09:20:26;;;;;;;7.90;4.60;;;19.20;99.90;;;;;;5069068;28;20092;-87
2023/08/25 09:22:56;;;;;;;8.52;4.97;;;19.40;99.90;;;;;;5070677;28;20031;-87
2023/08/25 09:25:22;;;;;;;9.52;4.47;;;19.60;99.90;;;;;;5079499;28;20125;-88
2023/08/25 09:27:57;;;;;;;5.55;4.25;;;19.90;99.90;;;;;;5065446;28;20028;-88
2023/08/25 09:30:35;;;;;;;6.97;4.88;;;20.20;99.90;;;;;;5080670;28;20060;-87
2023/08/25 09:33:09;;;;;;;7.63;3.67;;;20.30;99.90;;;;;;5065149;28;20077;-86
2023/08/25 09:35:35;;;;;;;6.93;4.20;;;20.50;99.90;;;;;;5077334;28;20059;-87
2023/08/25 09:38:02;;;;;;;6.60;4.30;;;20.80;99.90;;;;;;5076939;28;20078;-86
2023/08/25 09:40:29;;;;;;;15.32;4.38;;;21.00;99.90;;;;;;5051660;28;20608;-87
2023/08/25 09:42:59;;;;;;;8.98;3.42;;;21.40;99.90;;;;;;5058356;28;20020;-87
2023/08/25 09:45:29;;;;;;;11.43;4.30;;;21.50;99.90;;;;;;5082977;28;20028;-87
2023/08/25 09:48:11;;;;;;;9.80;3.78;;;21.70;99.90;;;;;;5075322;28;20375;-86
2023/08/25 09:50:41;;;;;;;6.38;3.70;;;22.00;99.90;;;;;;5079529;28;20494;-87
2023/08/25 09:53:09;;;;;;;7.27;3.00;;;22.40;99.90;;;;;;5086815;28;20434;-88
2023/08/25 09:55:36;;;;;;;6.43;3.83;;;22.90;99.90;;;;;;5062910;28;20270;-87
2023/08/25 09:58:07;;;;;;;7.47;3.42;;;23.00;99.90;;;;;;5076650;28;20111;-87
2023/08/25 10:00:38;;;;;;;7.30;3.20;;;23.40;99.90;;;;;;5084193;28;20035;-88
2023/08/25 10:03:10;;;;;;;6.07;3.08;;;23.50;99.90;;;;;;5065428;28;20469;-87
2023/08/25 10:05:37;;;;;;;5.72;3.63;;;23.20;99.90;;;;;;5086743;28;20513;-86
2023/08/25 10:08:05;;;;;;;9.07;3.67;;;23.10;99.90;;;;;;5066705;28;20459;-87
2023/08/25 10:10:33;;;;;;;5.05;3.72;;;23.50;99.90;;;;;;5087177;28;20056;-87
2023/08/25 10:13:01;;;;;;;7.05;3.33;;;23.70;99.90;;;;;;5062277;28;20020;-87
2023/08/25 10:15:30;;;;;;;5.72;2.92;;;23.80;99.90;;;;;;5080566;28;20044;-88
2023/08/25 10:18:01;;;;;;;6.18;3.17;;;24.00;99.90;;;;;;5067447;28;20035;-87
2023/08/25 10:20:29;;;;;;;4.70;2.97;;;24.40;99.90;;;;;;5108385;28;20032;-88
2023/08/25 10:22:56;;;;;;;7.60;2.95;;;24.50;99.90;;;;;;5068481;28;20028;-88
2023/08/25 10:25:24;;;;;;;4.25;2.50;;;24.80;99.90;;;;;;5072621;28;20072;-87
2023/08/25 10:27:50;;;;;;;6.25;2.60;;;24.80;99.90;;;;;;5065348;28;20533;-87
2023/08/25 10:30:16;;;;;;;5.88;2.67;;;24.80;99.90;;;;;;5067439;28;20082;-86
2023/08/25 10:32:56;;;;;;;7.95;3.47;;;24.60;99.90;;;;;;5070044;28;20056;-87
2023/08/25 10:35:43;;;;;;;11.27;3.83;;;23.90;99.90;;;;;;5081996;28;20020;-87
2023/08/25 10:38:18;;;;;;;6.40;3.95;;;23.30;99.90;;;;;;5082048;28;20032;-86
2023/08/25 10:40:54;;;;;;;9.60;3.75;;;22.90;99.90;;;;;;5070418;28;20028;-87
2023/08/25 10:43:30;;;;;;;6.93;4.22;;;22.90;99.90;;;;;;5068172;28;20041;-86
2023/08/25 10:45:55;;;;;;;8.68;4.00;;;22.90;99.90;;;;;;5086814;28;20383;-87
2023/08/25 10:48:26;;;;;;;8.68;3.33;;;23.00;99.90;;;;;;5070192;28;20031;-87
2023/08/25 10:50:53;;;;;;;5.10;3.47;;;22.90;99.90;;;;;;5063410;28;20498;-87
2023/08/25 10:53:35;;;;;;;5.18;3.50;;;22.90;99.90;;;;;;5071883;28;20035;-87
2023/08/25 10:56:22;;;;;;;10.25;3.80;;;23.00;99.90;;;;;;5066904;28;20127;-86
2023/08/25 10:59:05;;;;;;;9.32;3.83;;;22.90;99.90;;;;;;5061222;28;20467;-87
2023/08/25 11:01:37;;;;;;;5.68;3.55;;;22.90;99.90;;;;;;5067603;28;20028;-86
2023/08/25 11:04:13;;;;;;;12.23;4.55;;;23.30;99.90;;;;;;5068905;28;20035;-86
2023/08/25 11:06:49;;;;;;;6.35;3.83;;;23.60;99.90;;;;;;5067407;28;20123;-87
2023/08/25 11:09:20;;;;;;;8.35;3.50;;;23.70;99.90;;;;;;5064906;28;20027;-87
2023/08/25 11:11:54;;;;;;;8.68;3.47;;;24.10;99.90;;;;;;5069057;28;20024;-86
2023/08/25 11:14:20;;;;;;;10.20;4.03;;;24.10;99.90;;;;;;5082794;28;20024;-87
2023/08/25 11:16:47;;;;;;;7.75;3.20;;;24.20;99.90;;;;;;5071946;28;20085;-87
2023/08/25 11:19:16;;;;;;;4.05;3.10;;;24.00;99.90;;;;;;5083790;28;20028;-87
2023/08/25 11:21:41;;;;;;;9.23;4.15;;;24.00;99.90;;;;;;5064934;28;20042;-87
2023/08/25 11:24:07;;;;;;;7.88;3.38;;;24.00;99.90;;;;;;5068948;28;20098;-87
2023/08/25 11:26:34;;;;;;;5.07;2.88;;;23.90;99.90;;;;;;5067505;28;20036;-87
2023/08/25 11:29:01;;;;;;;5.53;3.17;;;23.90;99.90;;;;;;5078604;28;20483;-87
2023/08/25 11:31:28;;;;;;;8.82;3.40;;;24.10;99.90;;;;;;5086882;28;20070;-88
2023/08/25 11:33:57;;;;;;;5.72;3.17;;;24.30;99.90;;;;;;5063181;28;20024;-87
2023/08/25 11:36:26;;;;;;;5.20;3.05;;;24.30;99.90;;;;;;5071727;28;20035;-88
2023/08/25 11:38:51;;;;;;;7.05;3.25;;;24.60;99.90;;;;;;5065721;28;20031;-86
2023/08/25 11:41:18;;;;;;;6.93;4.60;;;24.50;99.90;;;;;;5082208;28;20047;-87
2023/08/25 11:43:48;;;;;;;16.52;5.10;;;24.40;99.90;;;;;;5083810;28;20019;-87
2023/08/25 11:46:15;;;;;;;9.90;5.50;;;24.80;99.90;;;;;;5066998;28;20026;-87
2023/08/25 11:48:41;;;;;;;6.70;4.10;;;25.20;99.90;;;;;;5085176;28;20526;-88
2023/08/25 11:51:14;;;;;;;6.32;3.55;;;26.40;99.90;;;;;;5068600;28;20028;-88
2023/08/25 11:53:42;;;;;;;5.93;4.00;;;27.30;99.90;;;;;;5068054;28;20034;-88
2023/08/25 11:56:13;;;;;;;5.53;3.40;;;27.20;99.90;;;;;;5081407;28;20109;-88
2023/08/25 11:58:39;;;;;;;4.55;2.75;;;26.90;99.90;;;;;;5069633;28;20370;-87
2023/08/25 12:01:11;;;;;;;8.77;3.25;;;27.00;99.90;;;;;;5065254;28;20024;-88
2023/08/25 12:03:38;;;;;;;6.05;2.92;;;26.70;99.90;;;;;;5080363;28;20493;-87
2023/08/25 12:06:06;;;;;;;8.00;3.92;;;26.20;99.90;;;;;;5066516;28;20036;-87
2023/08/25 12:08:33;;;;;;;5.47;3.42;;;26.10;99.90;;;;;;5082071;28;20038;-87
2023/08/25 12:11:17;;;;;;;3.63;3.05;;;26.40;99.90;;;;;;5100383;28;20042;-87
2023/08/25 12:13:46;;;;;;;5.00;3.72;;;26.50;99.90;;;;;;5074613;28;20536;-87
2023/08/25 12:16:13;;;;;;;6.93;3.10;;;26.50;99.90;;;;;;5050265;28;20035;-88
2023/08/25 12:18:41;;;;;;;3.55;3.05;;;26.30;99.90;;;;;;5080911;28;20123;-87
2023/08/25 12:21:07;;;;;;;6.38;3.20;;;26.20;99.90;;;;;;5059015;28;20429;-87
2023/08/25 12:23:34;;;;;;;9.30;3.78;;;26.00;99.90;;;;;;5083265;28;20066;-87
2023/08/25 12:26:04;;;;;;;6.88;3.40;;;25.80;99.90;;;;;;5057909;28;20027;-86
2023/08/25 12:28:31;;;;;;;5.75;3.28;;;25.80;99.90;;;;;;5093447;28;20031;-87
2023/08/25 12:30:58;;;;;;;5.20;3.17;;;25.60;99.90;;;;;;5074179;28;20387;-87
2023/08/25 12:33:23;;;;;;;6.03;3.55;;;25.20;99.90;;;;;;5090262;28;20694;-87
2023/08/25 12:35:50;;;;;;;7.80;4.28;;;24.60;99.90;;;;;;5067307;28;20035;-87
2023/08/25 12:38:16;;;;;;;7.20;4.82;;;24.10;99.90;;;;;;5058895;28;20025;-87
2023/08/25 12:40:42;;;;;;;7.22;3.95;;;23.80;99.90;;;;;;5082912;28;20039;-86
2023/08/25 12:43:08;;;;;;;8.88;3.83;;;23.60;99.90;;;;;;5059424;28;20048;-87